HOS Eagleview — WDE6604 — position and weather

sailwx.info

Track history (hours):
 
Tides and Currents Weather Stations Pressure Air Temp Water Temp Dewpoint Dewpoint Depression Visibility Wind Speed Wind Dir Waves Ship Positions

HOS Eagleview

Owner: HORNBECK OFFSHORE SERVICES, LLC, Covington, LA. More information available from US FCC via Universal Licensing System and Coast Guard Vessel Documentation Center.

Last reported at 2018-Jan-18 16:49 UTC. Time now 2018-Jan-20 01:46 UTC.
Position N 47°45' W 122°44'.

Length 75 m; draft 4.4 m.

Type: Military. MMSI: 368067000.

Date/timePositionNaut miles runAvg speedWind from/ knotsBaromVisibWave heightAir tempDewpointWater temp
2018-Jan-18 16:49N 47°45' W 122°44'0 0.0
2018-Jan-18 16:21N 47°45' W 122°44'0 0.0
2018-Jan-18 15:51N 47°45' W 122°44'0 0.0
2018-Jan-18 15:22N 47°45' W 122°44'0 0.0
2018-Jan-18 14:59N 47°45' W 122°44'0 0.0
2018-Jan-18 09:43N 47°45' W 122°44'0 0.0
2018-Jan-18 07:21N 47°45' W 122°44'0 1.3
2018-Jan-18 06:59N 47°45' W 122°44'4 7.9
2018-Jan-18 06:30N 47°48' W 122°42'5 9.7
2018-Jan-18 06:00N 47°52' W 122°37'2 3.7
2018-Jan-18 05:29N 47°53' W 122°36'28 8.8
2018-Jan-18 02:16N 48°12' W 123°08'612.6
2018-Jan-18 01:48N 48°10' W 123°16'412.6
2018-Jan-18 01:30N 48°08' W 123°21'4 7.3
2018-Jan-18 01:00N 48°08' W 123°26'  
Track history (hours):
 
Tides and Currents Weather Stations Pressure Air Temp Water Temp Dewpoint Dewpoint Depression Visibility Wind Speed Wind Dir Waves Ship Positions

HOS Eagleview

Owner: HORNBECK OFFSHORE SERVICES, LLC, Covington, LA. More information available from US FCC via Universal Licensing System and Coast Guard Vessel Documentation Center.

Last reported at 2018-Jan-18 16:49 UTC. Time now 2018-Jan-20 01:46 UTC.
Position N 47°45' W 122°44'.

Length 75 m; draft 4.4 m.

Type: Military. MMSI: 368067000.

Date/timePositionNaut miles runAvg speedWind from/ knotsBaromVisibWave heightAir tempDewpointWater temp
2018-Jan-18 16:49N 47°45' W 122°44'0 0.0
2018-Jan-18 16:21N 47°45' W 122°44'0 0.0
2018-Jan-18 15:51N 47°45' W 122°44'0 0.0
2018-Jan-18 15:22N 47°45' W 122°44'0 0.0
2018-Jan-18 14:59N 47°45' W 122°44'0 0.0
2018-Jan-18 09:43N 47°45' W 122°44'0 0.0
2018-Jan-18 07:21N 47°45' W 122°44'0 1.3
2018-Jan-18 06:59N 47°45' W 122°44'4 7.9
2018-Jan-18 06:30N 47°48' W 122°42'5 9.7
2018-Jan-18 06:00N 47°52' W 122°37'2 3.7
2018-Jan-18 05:29N 47°53' W 122°36'28 8.8
2018-Jan-18 02:16N 48°12' W 123°08'612.6
2018-Jan-18 01:48N 48°10' W 123°16'412.6
2018-Jan-18 01:30N 48°08' W 123°21'4 7.3
2018-Jan-18 01:00N 48°08' W 123°26'  

Dump ship's entire track history